Back to Top

Language: 

My Weather Underground Personal Weather Station Historical Data with Graphs...

Delerius Weather Station Historical Data
Daily Summary for January 30, 2018 Units:  Both    English   Metric
« Previous Day
Next Day »
Daily Weekly Monthly Yearly Custom
  High: Low: Average:
Temperature: 46.0 °F /  7.8 °C 38.8 °F /  3.8 °C 41.3 °F /  5.2 °C
Dew Point: 38.2 °F /  3.4 °C 34.5 °F /  1.4 °C 36.2 °F /  2.3 °C
Humidity: 93% 71% 82%
Wind Speed: 12.0mph /  19.3km/h - 5.7mph /  9.2km/h
Wind Gust: 21.0mph /  33.8km/h - -
Wind- - WSW
Pressure: 30.41 in /  1029.7 hPa 29.76 in /  1007.7 hPa -
Precipitation: 0.00 in /  0 mm    
Historical Graphs
 
 
Tabular Data for January 30, 2018
Time Temperature Dew Point Pressure Wind Wind Speed Wind Gust Humidity Rainfall Rate (Hourly) solar Conditions
00:01 39.2 °F /  4 °C 35.7 °F /  2.1 °C 30.40in /  1029.3hPa WSW 2.0mph /  3.2km/h 4.0mph /  6.4km/h 87% 0.00in /  0mm 0 W/m2
00:06 39.2 °F /  4 °C 35.7 °F /  2.1 °C 30.40in /  1029.3hPa WSW 1.0mph /  1.6km/h 4.0mph /  6.4km/h 87% 0.00in /  0mm 0 W/m2
00:11 39.4 °F /  4.1 °C 35.8 °F /  2.1 °C 30.40in /  1029.3hPa West 3.0mph /  4.8km/h 5.0mph /  8km/h 87% 0.00in /  0mm 0 W/m2
00:16 39.4 °F /  4.1 °C 35.8 °F /  2.1 °C 30.40in /  1029.3hPa West 4.0mph /  6.4km/h 6.0mph /  9.7km/h 87% 0.00in /  0mm 0 W/m2
00:21 39.6 °F /  4.2 °C 36.0 °F /  2.2 °C 30.41in /  1029.7hPa West 5.0mph /  8km/h 8.0mph /  12.9km/h 87% 0.00in /  0mm 0 W/m2
00:26 39.6 °F /  4.2 °C 36.0 °F /  2.2 °C 30.40in /  1029.3hPa WNW 7.0mph /  11.3km/h 10.0mph /  16.1km/h 87% 0.00in /  0mm 0 W/m2
00:31 39.7 °F /  4.3 °C 36.2 °F /  2.3 °C 30.40in /  1029.3hPa WNW 4.0mph /  6.4km/h 9.0mph /  14.5km/h 87% 0.00in /  0mm 0 W/m2
00:36 39.7 °F /  4.3 °C 36.2 °F /  2.3 °C 30.40in /  1029.3hPa NW 3.0mph /  4.8km/h 7.0mph /  11.3km/h 87% 0.00in /  0mm 0 W/m2
00:41 39.7 °F /  4.3 °C 36.2 °F /  2.3 °C 30.40in /  1029.3hPa WNW 3.0mph /  4.8km/h 5.0mph /  8km/h 87% 0.00in /  0mm 0 W/m2
00:46 39.7 °F /  4.3 °C 36.2 °F /  2.3 °C 30.41in /  1029.7hPa West 4.0mph /  6.4km/h 9.0mph /  14.5km/h 87% 0.00in /  0mm 0 W/m2
00:51 39.7 °F /  4.3 °C 36.2 °F /  2.3 °C 30.41in /  1029.7hPa WNW 4.0mph /  6.4km/h 7.0mph /  11.3km/h 87% 0.00in /  0mm 0 W/m2
00:56 39.7 °F /  4.3 °C 36.2 °F /  2.3 °C 30.40in /  1029.3hPa WNW 4.0mph /  6.4km/h 7.0mph /  11.3km/h 87% 0.00in /  0mm 0 W/m2
01:01 39.7 °F /  4.3 °C 36.2 °F /  2.3 °C 30.41in /  1029.7hPa West 6.0mph /  9.7km/h 10.0mph /  16.1km/h 87% 0.00in /  0mm 0 W/m2
01:06 39.7 °F /  4.3 °C 36.2 °F /  2.3 °C 30.40in /  1029.3hPa West 5.0mph /  8km/h 11.0mph /  17.7km/h 87% 0.00in /  0mm 0 W/m2
01:11 39.7 °F /  4.3 °C 36.2 °F /  2.3 °C 30.40in /  1029.3hPa WNW 7.0mph /  11.3km/h 13.0mph /  20.9km/h 87% 0.00in /  0mm 0 W/m2
01:16 39.7 °F /  4.3 °C 36.2 °F /  2.3 °C 30.40in /  1029.3hPa West 8.0mph /  12.9km/h 11.0mph /  17.7km/h 87% 0.00in /  0mm 0 W/m2
01:18 39.7 °F /  4.3 °C 36.2 °F /  2.3 °C 30.40in /  1029.3hPa WNW 9.0mph /  14.5km/h 12.0mph /  19.3km/h 87% 0.00in /  0mm 0 W/m2
01:23 39.7 °F /  4.3 °C 36.2 °F /  2.3 °C 30.40in /  1029.3hPa WNW 7.0mph /  11.3km/h 11.0mph /  17.7km/h 87% 0.00in /  0mm 0 W/m2
01:28 39.7 °F /  4.3 °C 36.2 °F /  2.3 °C 30.40in /  1029.3hPa WNW 8.0mph /  12.9km/h 12.0mph /  19.3km/h 87% 0.00in /  0mm 0 W/m2
01:33 39.7 °F /  4.3 °C 36.2 °F /  2.3 °C 30.40in /  1029.3hPa West 7.0mph /  11.3km/h 10.0mph /  16.1km/h 87% 0.00in /  0mm 0 W/m2
01:38 39.7 °F /  4.3 °C 36.2 °F /  2.3 °C 30.40in /  1029.3hPa West 11.0mph /  17.7km/h 18.0mph /  29km/h 87% 0.00in /  0mm 0 W/m2
01:43 39.7 °F /  4.3 °C 36.2 °F /  2.3 °C 30.40in /  1029.3hPa WNW 11.0mph /  17.7km/h 18.0mph /  29km/h 87% 0.00in /  0mm 0 W/m2
01:48 39.7 °F /  4.3 °C 36.2 °F /  2.3 °C 30.40in /  1029.3hPa WNW 9.0mph /  14.5km/h 18.0mph /  29km/h 87% 0.00in /  0mm 0 W/m2
01:53 39.7 °F /  4.3 °C 36.2 °F /  2.3 °C 30.40in /  1029.3hPa West 8.0mph /  12.9km/h 12.0mph /  19.3km/h 87% 0.00in /  0mm 0 W/m2
01:58 39.7 °F /  4.3 °C 36.5 °F /  2.5 °C 30.39in /  1029hPa West 9.0mph /  14.5km/h 13.0mph /  20.9km/h 88% 0.00in /  0mm 0 W/m2
02:03 39.7 °F /  4.3 °C 36.5 °F /  2.5 °C 30.39in /  1029hPa West 7.0mph /  11.3km/h 13.0mph /  20.9km/h 88% 0.00in /  0mm 0 W/m2
02:08 39.7 °F /  4.3 °C 36.5 °F /  2.5 °C 30.39in /  1029hPa West 7.0mph /  11.3km/h 10.0mph /  16.1km/h 88% 0.00in /  0mm 0 W/m2
02:13 39.7 °F /  4.3 °C 36.5 °F /  2.5 °C 30.38in /  1028.7hPa West 6.0mph /  9.7km/h 9.0mph /  14.5km/h 88% 0.00in /  0mm 0 W/m2
02:19 39.7 °F /  4.3 °C 36.5 °F /  2.5 °C 30.38in /  1028.7hPa WNW 7.0mph /  11.3km/h 11.0mph /  17.7km/h 88% 0.00in /  0mm 0 W/m2
02:24 39.7 °F /  4.3 °C 36.5 °F /  2.5 °C 30.38in /  1028.7hPa WNW 6.0mph /  9.7km/h 12.0mph /  19.3km/h 88% 0.00in /  0mm 0 W/m2
02:29 39.7 °F /  4.3 °C 36.5 °F /  2.5 °C 30.38in /  1028.7hPa WNW 10.0mph /  16.1km/h 15.0mph /  24.1km/h 88% 0.00in /  0mm 0 W/m2
02:34 39.7 °F /  4.3 °C 36.5 °F /  2.5 °C 30.37in /  1028.3hPa WNW 9.0mph /  14.5km/h 14.0mph /  22.5km/h 88% 0.00in /  0mm 0 W/m2
02:39 39.7 °F /  4.3 °C 36.2 °F /  2.3 °C 30.38in /  1028.7hPa West 10.0mph /  16.1km/h 14.0mph /  22.5km/h 87% 0.00in /  0mm 0 W/m2
02:44 39.9 °F /  4.4 °C 36.4 °F /  2.4 °C 30.37in /  1028.3hPa West 11.0mph /  17.7km/h 15.0mph /  24.1km/h 87% 0.00in /  0mm 0 W/m2
02:49 39.7 °F /  4.3 °C 36.2 °F /  2.3 °C 30.37in /  1028.3hPa WNW 10.0mph /  16.1km/h 20.0mph /  32.2km/h 87% 0.00in /  0mm 0 W/m2
02:54 39.7 °F /  4.3 °C 36.5 °F /  2.5 °C 30.37in /  1028.3hPa WNW 11.0mph /  17.7km/h 18.0mph /  29km/h 88% 0.00in /  0mm 0 W/m2
02:59 39.9 °F /  4.4 °C 36.7 °F /  2.6 °C 30.37in /  1028.3hPa WNW 10.0mph /  16.1km/h 16.0mph /  25.7km/h 88% 0.00in /  0mm 0 W/m2
03:04 39.9 °F /  4.4 °C 36.7 °F /  2.6 °C 30.37in /  1028.3hPa West 12.0mph /  19.3km/h 20.0mph /  32.2km/h 88% 0.00in /  0mm 0 W/m2
03:09 40.1 °F /  4.5 °C 36.8 °F /  2.7 °C 30.37in /  1028.3hPa WNW 10.0mph /  16.1km/h 18.0mph /  29km/h 88% 0.00in /  0mm 0 W/m2
03:14 40.3 °F /  4.6 °C 36.7 °F /  2.6 °C 30.37in /  1028.3hPa West 11.0mph /  17.7km/h 15.0mph /  24.1km/h 87% 0.00in /  0mm 0 W/m2
03:19 40.5 °F /  4.7 °C 36.9 °F /  2.7 °C 30.37in /  1028.3hPa West 8.0mph /  12.9km/h 12.0mph /  19.3km/h 87% 0.00in /  0mm 0 W/m2
03:24 40.3 °F /  4.6 °C 36.7 °F /  2.6 °C 30.37in /  1028.3hPa WSW 8.0mph /  12.9km/h 11.0mph /  17.7km/h 87% 0.00in /  0mm 0 W/m2
03:29 40.1 °F /  4.5 °C 36.5 °F /  2.5 °C 30.36in /  1028hPa WSW 8.0mph /  12.9km/h 11.0mph /  17.7km/h 87% 0.00in /  0mm 0 W/m2
03:34 39.9 °F /  4.4 °C 36.4 °F /  2.4 °C 30.36in /  1028hPa WSW 7.0mph /  11.3km/h 10.0mph /  16.1km/h 87% 0.00in /  0mm 0 W/m2
03:39 39.7 °F /  4.3 °C 36.5 °F /  2.5 °C 30.36in /  1028hPa WSW 5.0mph /  8km/h 8.0mph /  12.9km/h 88% 0.00in /  0mm 0 W/m2
03:44 39.7 °F /  4.3 °C 36.5 °F /  2.5 °C 30.36in /  1028hPa SW 6.0mph /  9.7km/h 10.0mph /  16.1km/h 88% 0.00in /  0mm 0 W/m2
03:49 39.7 °F /  4.3 °C 36.5 °F /  2.5 °C 30.36in /  1028hPa WSW 4.0mph /  6.4km/h 8.0mph /  12.9km/h 88% 0.00in /  0mm 0 W/m2
03:54 39.7 °F /  4.3 °C 36.5 °F /  2.5 °C 30.36in /  1028hPa WNW 1.0mph /  1.6km/h 4.0mph /  6.4km/h 88% 0.00in /  0mm 0 W/m2
03:59 39.9 °F /  4.4 °C 36.7 °F /  2.6 °C 30.36in /  1028hPa West 10.0mph /  16.1km/h 19.0mph /  30.6km/h 88% 0.00in /  0mm 0 W/m2
04:04 39.9 °F /  4.4 °C 36.7 °F /  2.6 °C 30.37in /  1028.3hPa West 5.0mph /  8km/h 9.0mph /  14.5km/h 88% 0.00in /  0mm 0 W/m2
04:09 40.1 °F /  4.5 °C 36.8 °F /  2.7 °C 30.36in /  1028hPa West 6.0mph /  9.7km/h 9.0mph /  14.5km/h 88% 0.00in /  0mm 0 W/m2
04:14 40.1 °F /  4.5 °C 36.8 °F /  2.7 °C 30.36in /  1028hPa West 7.0mph /  11.3km/h 13.0mph /  20.9km/h 88% 0.00in /  0mm 0 W/m2
04:19 40.1 °F /  4.5 °C 36.8 °F /  2.7 °C 30.37in /  1028.3hPa West 6.0mph /  9.7km/h 11.0mph /  17.7km/h 88% 0.00in /  0mm 0 W/m2
04:24 40.1 °F /  4.5 °C 36.8 °F /  2.7 °C 30.36in /  1028hPa WNW 5.0mph /  8km/h 10.0mph /  16.1km/h 88% 0.00in /  0mm 0 W/m2
04:29 39.9 °F /  4.4 °C 36.7 °F /  2.6 °C 30.36in /  1028hPa West 4.0mph /  6.4km/h 7.0mph /  11.3km/h 88% 0.00in /  0mm 0 W/m2
04:34 39.9 °F /  4.4 °C 36.7 °F /  2.6 °C 30.36in /  1028hPa West 1.0mph /  1.6km/h 5.0mph /  8km/h 88% 0.00in /  0mm 0 W/m2
04:39 39.7 °F /  4.3 °C 36.5 °F /  2.5 °C 30.36in /  1028hPa West 4.0mph /  6.4km/h 7.0mph /  11.3km/h 88% 0.00in /  0mm 0 W/m2
04:44 39.6 °F /  4.2 °C 36.3 °F /  2.4 °C 30.36in /  1028hPa West 7.0mph /  11.3km/h 10.0mph /  16.1km/h 88% 0.00in /  0mm 0 W/m2
04:49 39.6 °F /  4.2 °C 36.3 °F /  2.4 °C 30.36in /  1028hPa West 2.0mph /  3.2km/h 6.0mph /  9.7km/h 88% 0.00in /  0mm 0 W/m2
04:54 39.4 °F /  4.1 °C 36.1 °F /  2.3 °C 30.36in /  1028hPa West 2.0mph /  3.2km/h 7.0mph /  11.3km/h 88% 0.00in /  0mm 0 W/m2
04:59 39.4 °F /  4.1 °C 36.1 °F /  2.3 °C 30.36in /  1028hPa Calm   3.0mph /  4.8km/h 88% 0.00in /  0mm 0 W/m2
05:04 39.2 °F /  4 °C 36.2 °F /  2.3 °C 30.36in /  1028hPa WSW 1.0mph /  1.6km/h 6.0mph /  9.7km/h 89% 0.00in /  0mm 0 W/m2
05:09 39.2 °F /  4 °C 36.2 °F /  2.3 °C 30.36in /  1028hPa WSW 6.0mph /  9.7km/h 10.0mph /  16.1km/h 89% 0.00in /  0mm 0 W/m2
05:14 39.2 °F /  4 °C 35.9 °F /  2.2 °C 30.36in /  1028hPa West 5.0mph /  8km/h 11.0mph /  17.7km/h 88% 0.00in /  0mm 0 W/m2
05:19 39.2 °F /  4 °C 35.9 °F /  2.2 °C 30.35in /  1027.7hPa WSW 5.0mph /  8km/h 8.0mph /  12.9km/h 88% 0.00in /  0mm 0 W/m2
05:24 39.2 °F /  4 °C 35.9 °F /  2.2 °C 30.35in /  1027.7hPa West 3.0mph /  4.8km/h 7.0mph /  11.3km/h 88% 0.00in /  0mm 0 W/m2
05:29 39.0 °F /  3.9 °C 35.8 °F /  2.1 °C 30.35in /  1027.7hPa WSW 5.0mph /  8km/h 8.0mph /  12.9km/h 88% 0.00in /  0mm 0 W/m2
05:34 39.0 °F /  3.9 °C 35.8 °F /  2.1 °C 30.35in /  1027.7hPa WNW 3.0mph /  4.8km/h 6.0mph /  9.7km/h 88% 0.00in /  0mm 0 W/m2
05:40 39.0 °F /  3.9 °C 35.8 °F /  2.1 °C 30.35in /  1027.7hPa West 4.0mph /  6.4km/h 9.0mph /  14.5km/h 88% 0.00in /  0mm 0 W/m2
05:45 39.0 °F /  3.9 °C 35.8 °F /  2.1 °C 30.35in /  1027.7hPa WNW 1.0mph /  1.6km/h 6.0mph /  9.7km/h 88% 0.00in /  0mm 0 W/m2
05:50 39.0 °F /  3.9 °C 35.8 °F /  2.1 °C 30.35in /  1027.7hPa SW 1.0mph /  1.6km/h 4.0mph /  6.4km/h 88% 0.00in /  0mm 0 W/m2
05:55 39.0 °F /  3.9 °C 35.8 °F /  2.1 °C 30.35in /  1027.7hPa Calm     88% 0.00in /  0mm 0 W/m2
06:00 39.0 °F /  3.9 °C 35.8 °F /  2.1 °C 30.35in /  1027.7hPa Calm     88% 0.00in /  0mm 0 W/m2
06:05 38.8 °F /  3.8 °C 35.6 °F /  2 °C 30.35in /  1027.7hPa NW 1.0mph /  1.6km/h 8.0mph /  12.9km/h 88% 0.00in /  0mm 0 W/m2
06:10 39.0 °F /  3.9 °C 35.8 °F /  2.1 °C 30.35in /  1027.7hPa WSW 6.0mph /  9.7km/h 9.0mph /  14.5km/h 88% 0.00in /  0mm 0 W/m2
06:15 39.4 °F /  4.1 °C 36.1 °F /  2.3 °C 30.34in /  1027.3hPa West 5.0mph /  8km/h 8.0mph /  12.9km/h 88% 0.00in /  0mm 0 W/m2
06:20 39.4 °F /  4.1 °C 36.1 °F /  2.3 °C 30.35in /  1027.7hPa WSW 5.0mph /  8km/h 9.0mph /  14.5km/h 88% 0.00in /  0mm 0 W/m2
06:25 39.4 °F /  4.1 °C 35.8 °F /  2.1 °C 30.34in /  1027.3hPa West 3.0mph /  4.8km/h 8.0mph /  12.9km/h 87% 0.00in /  0mm 0 W/m2
06:30 39.4 °F /  4.1 °C 35.8 °F /  2.1 °C 30.35in /  1027.7hPa West 4.0mph /  6.4km/h 8.0mph /  12.9km/h 87% 0.00in /  0mm 0 W/m2
06:35 39.4 °F /  4.1 °C 35.8 °F /  2.1 °C 30.35in /  1027.7hPa WSW 2.0mph /  3.2km/h 5.0mph /  8km/h 87% 0.00in /  0mm 0 W/m2
06:40 39.4 °F /  4.1 °C 35.8 °F /  2.1 °C 30.35in /  1027.7hPa West 4.0mph /  6.4km/h 8.0mph /  12.9km/h 87% 0.00in /  0mm 0 W/m2
06:45 39.4 °F /  4.1 °C 35.8 °F /  2.1 °C 30.35in /  1027.7hPa West 6.0mph /  9.7km/h 8.0mph /  12.9km/h 87% 0.00in /  0mm 0 W/m2
06:50 39.4 °F /  4.1 °C 35.8 °F /  2.1 °C 30.34in /  1027.3hPa WNW 9.0mph /  14.5km/h 13.0mph /  20.9km/h 87% 0.00in /  0mm 0 W/m2
06:55 39.6 °F /  4.2 °C 36.0 °F /  2.2 °C 30.34in /  1027.3hPa West 9.0mph /  14.5km/h 13.0mph /  20.9km/h 87% 0.00in /  0mm 0 W/m2
07:00 39.7 °F /  4.3 °C 35.9 °F /  2.2 °C 30.33in /  1027hPa West 10.0mph /  16.1km/h 13.0mph /  20.9km/h 86% 0.00in /  0mm 0 W/m2
07:05 39.9 °F /  4.4 °C 36.1 °F /  2.3 °C 30.34in /  1027.3hPa West 9.0mph /  14.5km/h 13.0mph /  20.9km/h 86% 0.00in /  0mm 0 W/m2
07:10 39.7 °F /  4.3 °C 35.9 °F /  2.2 °C 30.33in /  1027hPa WNW 9.0mph /  14.5km/h 13.0mph /  20.9km/h 86% 0.00in /  0mm 0 W/m2
07:15 39.7 °F /  4.3 °C 35.9 °F /  2.2 °C 30.33in /  1027hPa West 6.0mph /  9.7km/h 9.0mph /  14.5km/h 86% 0.00in /  0mm 0 W/m2
07:20 39.7 °F /  4.3 °C 35.9 °F /  2.2 °C 30.33in /  1027hPa WNW 5.0mph /  8km/h 8.0mph /  12.9km/h 86% 0.00in /  0mm 0 W/m2
07:25 39.6 °F /  4.2 °C 35.7 °F /  2.1 °C 30.34in /  1027.3hPa WNW 3.0mph /  4.8km/h 7.0mph /  11.3km/h 86% 0.00in /  0mm 0 W/m2
07:30 39.4 °F /  4.1 °C 35.5 °F /  1.9 °C 30.34in /  1027.3hPa WNW 2.0mph /  3.2km/h 4.0mph /  6.4km/h 86% 0.00in /  0mm 0 W/m2
07:35 39.2 °F /  4 °C 35.4 °F /  1.9 °C 30.34in /  1027.3hPa NW 3.0mph /  4.8km/h 5.0mph /  8km/h 86% 0.00in /  0mm 0 W/m2
07:40 39.0 °F /  3.9 °C 35.2 °F /  1.8 °C 30.34in /  1027.3hPa NW 4.0mph /  6.4km/h 7.0mph /  11.3km/h 86% 0.00in /  0mm 0 W/m2
07:45 38.8 °F /  3.8 °C 35.3 °F /  1.8 °C 30.34in /  1027.3hPa WNW 5.0mph /  8km/h 8.0mph /  12.9km/h 87% 0.00in /  0mm 0 W/m2
07:50 38.8 °F /  3.8 °C 35.3 °F /  1.8 °C 30.34in /  1027.3hPa WNW 6.0mph /  9.7km/h 9.0mph /  14.5km/h 87% 0.00in /  0mm 0 W/m2
07:55 38.8 °F /  3.8 °C 35.6 °F /  2 °C 30.34in /  1027.3hPa WNW 6.0mph /  9.7km/h 8.0mph /  12.9km/h 88% 0.00in /  0mm 0 W/m2
08:00 38.8 °F /  3.8 °C 35.6 °F /  2 °C 30.34in /  1027.3hPa WNW 6.0mph /  9.7km/h 10.0mph /  16.1km/h 88% 0.00in /  0mm 5 W/m2
08:06 39.0 °F /  3.9 °C 35.8 °F /  2.1 °C 30.34in /  1027.3hPa WNW 7.0mph /  11.3km/h 10.0mph /  16.1km/h 88% 0.00in /  0mm 5 W/m2
08:11 39.0 °F /  3.9 °C 35.8 °F /  2.1 °C 30.34in /  1027.3hPa West 7.0mph /  11.3km/h 11.0mph /  17.7km/h 88% 0.00in /  0mm 7 W/m2
08:16 39.2 °F /  4 °C 35.9 °F /  2.2 °C 30.35in /  1027.7hPa West 6.0mph /  9.7km/h 12.0mph /  19.3km/h 88% 0.00in /  0mm 11 W/m2
08:21 39.4 °F /  4.1 °C 35.8 °F /  2.1 °C 30.34in /  1027.3hPa West 6.0mph /  9.7km/h 11.0mph /  17.7km/h 87% 0.00in /  0mm 14 W/m2
08:26 39.4 °F /  4.1 °C 35.8 °F /  2.1 °C 30.34in /  1027.3hPa West 3.0mph /  4.8km/h 5.0mph /  8km/h 87% 0.00in /  0mm 19 W/m2
08:31 39.4 °F /  4.1 °C 35.8 °F /  2.1 °C 30.34in /  1027.3hPa NW 3.0mph /  4.8km/h 6.0mph /  9.7km/h 87% 0.00in /  0mm 25 W/m2
08:36 39.6 °F /  4.2 °C 36.0 °F /  2.2 °C 30.34in /  1027.3hPa WSW 3.0mph /  4.8km/h 7.0mph /  11.3km/h 87% 0.00in /  0mm 30 W/m2
08:41 39.6 °F /  4.2 °C 36.0 °F /  2.2 °C 30.34in /  1027.3hPa West 3.0mph /  4.8km/h 7.0mph /  11.3km/h 87% 0.00in /  0mm 35 W/m2
08:46 39.4 °F /  4.1 °C 35.5 °F /  1.9 °C 30.33in /  1027hPa West 1.0mph /  1.6km/h 4.0mph /  6.4km/h 86% 0.00in /  0mm 40 W/m2
08:51 39.4 °F /  4.1 °C 35.8 °F /  2.1 °C 30.33in /  1027hPa Calm   1.0mph /  1.6km/h 87% 0.00in /  0mm 46 W/m2
08:56 39.4 °F /  4.1 °C 35.8 °F /  2.1 °C 30.33in /  1027hPa Calm     87% 0.00in /  0mm 53 W/m2
09:01 39.2 °F /  4 °C 35.4 °F /  1.9 °C 30.33in /  1027hPa Calm   1.0mph /  1.6km/h 86% 0.00in /  0mm 53 W/m2
09:06 39.2 °F /  4 °C 35.7 °F /  2.1 °C 30.33in /  1027hPa Calm   1.0mph /  1.6km/h 87% 0.00in /  0mm 53 W/m2
09:11 39.0 °F /  3.9 °C 35.5 °F /  1.9 °C 30.32in /  1026.6hPa Calm     87% 0.00in /  0mm 63 W/m2
09:16 39.2 °F /  4 °C 35.9 °F /  2.2 °C 30.32in /  1026.6hPa West 3.0mph /  4.8km/h 4.0mph /  6.4km/h 88% 0.00in /  0mm 84 W/m2
09:21 39.4 °F /  4.1 °C 36.1 °F /  2.3 °C 30.33in /  1027hPa East 1.0mph /  1.6km/h 2.0mph /  3.2km/h 88% 0.00in /  0mm 104 W/m2
09:26 39.6 °F /  4.2 °C 36.3 °F /  2.4 °C 30.33in /  1027hPa Calm     88% 0.00in /  0mm 86 W/m2
09:31 39.7 °F /  4.3 °C 36.5 °F /  2.5 °C 30.33in /  1027hPa Calm     88% 0.00in /  0mm 95 W/m2
09:36 39.9 °F /  4.4 °C 36.7 °F /  2.6 °C 30.32in /  1026.6hPa Calm     88% 0.00in /  0mm 102 W/m2
09:41 40.3 °F /  4.6 °C 36.7 °F /  2.6 °C 30.32in /  1026.6hPa Calm   1.0mph /  1.6km/h 87% 0.00in /  0mm 144 W/m2
09:46 40.6 °F /  4.8 °C 37.1 °F /  2.8 °C 30.32in /  1026.6hPa ENE 1.0mph /  1.6km/h 5.0mph /  8km/h 87% 0.00in /  0mm 195 W/m2
09:51 41.0 °F /  5 °C 37.1 °F /  2.8 °C 30.32in /  1026.6hPa ENE 1.0mph /  1.6km/h 3.0mph /  4.8km/h 86% 0.00in /  0mm 181 W/m2
09:57 41.4 °F /  5.2 °C 37.5 °F /  3.1 °C 30.32in /  1026.6hPa Calm     86% 0.00in /  0mm 151 W/m2
10:02 41.9 °F /  5.5 °C 37.4 °F /  3 °C 30.32in /  1026.6hPa Calm     84% 0.00in /  0mm 111 W/m2
10:07 42.1 °F /  5.6 °C 37.3 °F /  2.9 °C 30.31in /  1026.3hPa ENE 1.0mph /  1.6km/h 2.0mph /  3.2km/h 83% 0.00in /  0mm 93 W/m2
10:12 42.1 °F /  5.6 °C 37.0 °F /  2.8 °C 30.31in /  1026.3hPa Calm     82% 0.00in /  0mm 102 W/m2
10:17 42.1 °F /  5.6 °C 37.0 °F /  2.8 °C 30.31in /  1026.3hPa Calm     82% 0.00in /  0mm 102 W/m2
10:22 42.1 °F /  5.6 °C 37.3 °F /  2.9 °C 30.31in /  1026.3hPa Calm     83% 0.00in /  0mm 218 W/m2
10:27 42.4 °F /  5.8 °C 37.6 °F /  3.1 °C 30.30in /  1026hPa Calm   1.0mph /  1.6km/h 83% 0.00in /  0mm 234 W/m2
10:32 42.8 °F /  6 °C 37.7 °F /  3.2 °C 30.30in /  1026hPa ENE 2.0mph /  3.2km/h 4.0mph /  6.4km/h 82% 0.00in /  0mm 244 W/m2
10:37 43.2 °F /  6.2 °C 37.7 °F /  3.2 °C 30.30in /  1026hPa ESE 1.0mph /  1.6km/h 2.0mph /  3.2km/h 81% 0.00in /  0mm 264 W/m2
10:42 43.5 °F /  6.4 °C 38.1 °F /  3.4 °C 30.30in /  1026hPa Calm   2.0mph /  3.2km/h 81% 0.00in /  0mm 285 W/m2
10:47 43.9 °F /  6.6 °C 37.8 °F /  3.2 °C 30.30in /  1026hPa ESE 1.0mph /  1.6km/h 4.0mph /  6.4km/h 79% 0.00in /  0mm 308 W/m2
10:52 44.2 °F /  6.8 °C 37.8 °F /  3.2 °C 30.30in /  1026hPa Calm     78% 0.00in /  0mm 141 W/m2
10:57 44.6 °F /  7 °C 37.8 °F /  3.2 °C 30.30in /  1026hPa WSW 1.0mph /  1.6km/h 4.0mph /  6.4km/h 77% 0.00in /  0mm 225 W/m2
11:02 44.8 °F /  7.1 °C 38.0 °F /  3.3 °C 30.30in /  1026hPa WNW 3.0mph /  4.8km/h 6.0mph /  9.7km/h 77% 0.00in /  0mm 308 W/m2
11:07 44.8 °F /  7.1 °C 37.7 °F /  3.2 °C 30.30in /  1026hPa WNW 5.0mph /  8km/h 9.0mph /  14.5km/h 76% 0.00in /  0mm 348 W/m2
11:12 45.0 °F /  7.2 °C 37.5 °F /  3.1 °C 30.30in /  1026hPa West 7.0mph /  11.3km/h 10.0mph /  16.1km/h 75% 0.00in /  0mm 345 W/m2
11:17 45.3 °F /  7.4 °C 37.9 °F /  3.3 °C 30.30in /  1026hPa West 7.0mph /  11.3km/h 14.0mph /  22.5km/h 75% 0.00in /  0mm 371 W/m2
11:22 45.5 °F /  7.5 °C 37.7 °F /  3.2 °C 30.29in /  1025.6hPa WSW 4.0mph /  6.4km/h 7.0mph /  11.3km/h 74% 0.00in /  0mm 369 W/m2
11:27 45.9 °F /  7.7 °C 38.0 °F /  3.3 °C 30.29in /  1025.6hPa WNW 4.0mph /  6.4km/h 7.0mph /  11.3km/h 74% 0.00in /  0mm 388 W/m2
11:32 45.9 °F /  7.7 °C 37.7 °F /  3.2 °C 30.28in /  1025.3hPa WSW 4.0mph /  6.4km/h 6.0mph /  9.7km/h 73% 0.00in /  0mm 185 W/m2
11:37 45.9 °F /  7.7 °C 37.7 °F /  3.2 °C 30.28in /  1025.3hPa SSW 4.0mph /  6.4km/h 6.0mph /  9.7km/h 73% 0.00in /  0mm 325 W/m2
11:42 45.7 °F /  7.6 °C 37.9 °F /  3.3 °C 30.27in /  1024.9hPa SW 2.0mph /  3.2km/h 6.0mph /  9.7km/h 74% 0.00in /  0mm 160 W/m2
11:47 45.9 °F /  7.7 °C 38.0 °F /  3.3 °C 30.27in /  1024.9hPa WSW 2.0mph /  3.2km/h 5.0mph /  8km/h 74% 0.00in /  0mm 186 W/m2
11:52 46.0 °F /  7.8 °C 38.2 °F /  3.4 °C 30.27in /  1024.9hPa WNW 4.0mph /  6.4km/h 7.0mph /  11.3km/h 74% 0.00in /  0mm 220 W/m2
11:57 46.0 °F /  7.8 °C 38.2 °F /  3.4 °C 30.26in /  1024.6hPa West 4.0mph /  6.4km/h 9.0mph /  14.5km/h 74% 0.00in /  0mm 179 W/m2
12:02 46.0 °F /  7.8 °C 37.9 °F /  3.3 °C 30.27in /  1024.9hPa WSW 5.0mph /  8km/h 9.0mph /  14.5km/h 73% 0.00in /  0mm 220 W/m2
12:07 45.9 °F /  7.7 °C 37.3 °F /  2.9 °C 30.26in /  1024.6hPa West 10.0mph /  16.1km/h 14.0mph /  22.5km/h 72% 0.00in /  0mm 260 W/m2
12:12 45.9 °F /  7.7 °C 37.3 °F /  2.9 °C 30.26in /  1024.6hPa West 5.0mph /  8km/h 10.0mph /  16.1km/h 72% 0.00in /  0mm 179 W/m2
12:17 45.9 °F /  7.7 °C 37.3 °F /  2.9 °C 30.26in /  1024.6hPa WSW 8.0mph /  12.9km/h 15.0mph /  24.1km/h 72% 0.00in /  0mm 156 W/m2
12:22 45.5 °F /  7.5 °C 36.6 °F /  2.6 °C 30.25in /  1024.3hPa SW 7.0mph /  11.3km/h 12.0mph /  19.3km/h 71% 0.00in /  0mm 146 W/m2
12:27 45.3 °F /  7.4 °C 36.8 °F /  2.7 °C 30.25in /  1024.3hPa WSW 6.0mph /  9.7km/h 13.0mph /  20.9km/h 72% 0.00in /  0mm 137 W/m2
12:32 45.0 °F /  7.2 °C 36.1 °F /  2.3 °C 30.25in /  1024.3hPa West 8.0mph /  12.9km/h 12.0mph /  19.3km/h 71% 0.00in /  0mm 132 W/m2
12:37 44.8 °F /  7.1 °C 36.3 °F /  2.4 °C 30.25in /  1024.3hPa West 6.0mph /  9.7km/h 8.0mph /  12.9km/h 72% 0.00in /  0mm 123 W/m2
12:42 44.8 °F /  7.1 °C 36.7 °F /  2.6 °C 30.25in /  1024.3hPa WNW 5.0mph /  8km/h 9.0mph /  14.5km/h 73% 0.00in /  0mm 121 W/m2
12:47 44.8 °F /  7.1 °C 36.7 °F /  2.6 °C 30.24in /  1023.9hPa WNW 6.0mph /  9.7km/h 11.0mph /  17.7km/h 73% 0.00in /  0mm 116 W/m2
12:53 44.8 °F /  7.1 °C 36.7 °F /  2.6 °C 30.24in /  1023.9hPa West 4.0mph /  6.4km/h 8.0mph /  12.9km/h 73% 0.00in /  0mm 120 W/m2
12:57 44.6 °F /  7 °C 36.5 °F /  2.5 °C 30.24in /  1023.9hPa SW 7.0mph /  11.3km/h 10.0mph /  16.1km/h 73% 0.00in /  0mm 132 W/m2
13:02 44.4 °F /  6.9 °C 36.6 °F /  2.6 °C 30.24in /  1023.9hPa WSW 6.0mph /  9.7km/h 9.0mph /  14.5km/h 74% 0.00in /  0mm 142 W/m2
13:08 44.4 °F /  6.9 °C 36.3 °F /  2.4 °C 30.24in /  1023.9hPa West 4.0mph /  6.4km/h 7.0mph /  11.3km/h 73% 0.00in /  0mm 148 W/m2
13:13 44.4 °F /  6.9 °C 36.6 °F /  2.6 °C 30.23in /  1023.6hPa WSW 4.0mph /  6.4km/h 11.0mph /  17.7km/h 74% 0.00in /  0mm 151 W/m2
13:18 44.4 °F /  6.9 °C 36.6 °F /  2.6 °C 30.23in /  1023.6hPa WSW 5.0mph /  8km/h 7.0mph /  11.3km/h 74% 0.00in /  0mm 146 W/m2
13:23 44.4 °F /  6.9 °C 36.6 °F /  2.6 °C 30.22in /  1023.2hPa WSW 7.0mph /  11.3km/h 11.0mph /  17.7km/h 74% 0.00in /  0mm 137 W/m2
13:28 44.2 °F /  6.8 °C 36.5 °F /  2.5 °C 30.22in /  1023.2hPa WSW 8.0mph /  12.9km/h 11.0mph /  17.7km/h 74% 0.00in /  0mm 130 W/m2
13:33 44.2 °F /  6.8 °C 36.8 °F /  2.7 °C 30.21in /  1022.9hPa WSW 8.0mph /  12.9km/h 14.0mph /  22.5km/h 75% 0.00in /  0mm 130 W/m2
13:38 44.1 °F /  6.7 °C 36.3 °F /  2.4 °C 30.21in /  1022.9hPa WSW 10.0mph /  16.1km/h 16.0mph /  25.7km/h 74% 0.00in /  0mm 125 W/m2
13:43 44.2 °F /  6.8 °C 36.8 °F /  2.7 °C 30.20in /  1022.6hPa WSW 8.0mph /  12.9km/h 13.0mph /  20.9km/h 75% 0.00in /  0mm 146 W/m2
13:48 44.2 °F /  6.8 °C 36.8 °F /  2.7 °C 30.20in /  1022.6hPa SW 6.0mph /  9.7km/h 12.0mph /  19.3km/h 75% 0.00in /  0mm 139 W/m2
13:53 44.2 °F /  6.8 °C 36.8 °F /  2.7 °C 30.20in /  1022.6hPa SW 11.0mph /  17.7km/h 15.0mph /  24.1km/h 75% 0.00in /  0mm 128 W/m2
13:58 44.1 °F /  6.7 °C 36.3 °F /  2.4 °C 30.20in /  1022.6hPa WSW 12.0mph /  19.3km/h 16.0mph /  25.7km/h 74% 0.00in /  0mm 135 W/m2
14:03 44.1 °F /  6.7 °C 36.3 °F /  2.4 °C 30.19in /  1022.2hPa WSW 9.0mph /  14.5km/h 15.0mph /  24.1km/h 74% 0.00in /  0mm 127 W/m2
14:08 44.1 °F /  6.7 °C 36.0 °F /  2.2 °C 30.19in /  1022.2hPa WSW 9.0mph /  14.5km/h 14.0mph /  22.5km/h 73% 0.00in /  0mm 125 W/m2
14:13 44.1 °F /  6.7 °C 36.0 °F /  2.2 °C 30.19in /  1022.2hPa WSW 9.0mph /  14.5km/h 13.0mph /  20.9km/h 73% 0.00in /  0mm 113 W/m2
14:18 44.1 °F /  6.7 °C 36.0 °F /  2.2 °C 30.19in /  1022.2hPa WSW 11.0mph /  17.7km/h 15.0mph /  24.1km/h 73% 0.00in /  0mm 116 W/m2
14:23 44.1 °F /  6.7 °C 36.0 °F /  2.2 °C 30.19in /  1022.2hPa WSW 10.0mph /  16.1km/h 15.0mph /  24.1km/h 73% 0.00in /  0mm 121 W/m2
14:28 44.1 °F /  6.7 °C 35.6 °F /  2 °C 30.18in /  1021.9hPa West 11.0mph /  17.7km/h 16.0mph /  25.7km/h 72% 0.00in /  0mm 105 W/m2
14:33 44.1 °F /  6.7 °C 36.0 °F /  2.2 °C 30.18in /  1021.9hPa WSW 9.0mph /  14.5km/h 13.0mph /  20.9km/h 73% 0.00in /  0mm 91 W/m2
14:38 43.9 °F /  6.6 °C 35.8 °F /  2.1 °C 30.18in /  1021.9hPa WSW 10.0mph /  16.1km/h 13.0mph /  20.9km/h 73% 0.00in /  0mm 76 W/m2
14:43 43.9 °F /  6.6 °C 35.8 °F /  2.1 °C 30.19in /  1022.2hPa West 10.0mph /  16.1km/h 15.0mph /  24.1km/h 73% 0.00in /  0mm 56 W/m2
14:48 43.9 °F /  6.6 °C 35.8 °F /  2.1 °C 30.18in /  1021.9hPa WSW 10.0mph /  16.1km/h 15.0mph /  24.1km/h 73% 0.00in /  0mm 62 W/m2
14:53 43.9 °F /  6.6 °C 35.8 °F /  2.1 °C 30.17in /  1021.6hPa WSW 7.0mph /  11.3km/h 9.0mph /  14.5km/h 73% 0.00in /  0mm 49 W/m2
14:58 43.9 °F /  6.6 °C 35.8 °F /  2.1 °C 30.17in /  1021.6hPa SW 5.0mph /  8km/h 9.0mph /  14.5km/h 73% 0.00in /  0mm 53 W/m2
15:03 43.9 °F /  6.6 °C 35.8 °F /  2.1 °C 30.17in /  1021.6hPa SW 6.0mph /  9.7km/h 9.0mph /  14.5km/h 73% 0.00in /  0mm 47 W/m2
15:08 43.7 °F /  6.5 °C 35.6 °F /  2 °C 30.17in /  1021.6hPa West 8.0mph /  12.9km/h 13.0mph /  20.9km/h 73% 0.00in /  0mm 40 W/m2
15:13 43.5 °F /  6.4 °C 35.1 °F /  1.7 °C 30.16in /  1021.2hPa West 11.0mph /  17.7km/h 18.0mph /  29km/h 72% 0.00in /  0mm 28 W/m2
15:18 43.5 °F /  6.4 °C 35.1 °F /  1.7 °C 30.16in /  1021.2hPa WSW 10.0mph /  16.1km/h 13.0mph /  20.9km/h 72% 0.00in /  0mm 28 W/m2
15:23 43.5 °F /  6.4 °C 35.4 °F /  1.9 °C 30.16in /  1021.2hPa WSW 7.0mph /  11.3km/h 11.0mph /  17.7km/h 73% 0.00in /  0mm 37 W/m2
15:28 43.5 °F /  6.4 °C 35.8 °F /  2.1 °C 30.15in /  1020.9hPa WSW 8.0mph /  12.9km/h 11.0mph /  17.7km/h 74% 0.00in /  0mm 40 W/m2
15:33 43.3 °F /  6.3 °C 35.6 °F /  2 °C 30.15in /  1020.9hPa WSW 8.0mph /  12.9km/h 12.0mph /  19.3km/h 74% 0.00in /  0mm 44 W/m2
15:38 43.3 °F /  6.3 °C 35.3 °F /  1.8 °C 30.14in /  1020.5hPa WSW 8.0mph /  12.9km/h 12.0mph /  19.3km/h 73% 0.00in /  0mm 33 W/m2
15:43 43.3 °F /  6.3 °C 35.3 °F /  1.8 °C 30.14in /  1020.5hPa WSW 5.0mph /  8km/h 8.0mph /  12.9km/h 73% 0.00in /  0mm 28 W/m2
15:48 43.2 °F /  6.2 °C 35.4 °F /  1.9 °C 30.13in /  1020.2hPa SW 7.0mph /  11.3km/h 11.0mph /  17.7km/h 74% 0.00in /  0mm 30 W/m2
15:53 43.2 °F /  6.2 °C 35.4 °F /  1.9 °C 30.13in /  1020.2hPa WSW 7.0mph /  11.3km/h 11.0mph /  17.7km/h 74% 0.00in /  0mm 30 W/m2
15:58 43.2 °F /  6.2 °C 35.4 °F /  1.9 °C 30.12in /  1019.9hPa WSW 3.0mph /  4.8km/h 6.0mph /  9.7km/h 74% 0.00in /  0mm 26 W/m2
16:04 43.0 °F /  6.1 °C 35.3 °F /  1.8 °C 30.12in /  1019.9hPa SW 5.0mph /  8km/h 10.0mph /  16.1km/h 74% 0.00in /  0mm 25 W/m2
16:09 43.0 °F /  6.1 °C 35.6 °F /  2 °C 30.12in /  1019.9hPa SW 3.0mph /  4.8km/h 8.0mph /  12.9km/h 75% 0.00in /  0mm 21 W/m2
16:14 43.0 °F /  6.1 °C 35.6 °F /  2 °C 30.11in /  1019.5hPa SW 4.0mph /  6.4km/h 9.0mph /  14.5km/h 75% 0.00in /  0mm 18 W/m2
16:19 42.8 °F /  6 °C 35.4 °F /  1.9 °C 30.11in /  1019.5hPa SSW 4.0mph /  6.4km/h 7.0mph /  11.3km/h 75% 0.00in /  0mm 14 W/m2
16:24 42.6 °F /  5.9 °C 35.2 °F /  1.8 °C 30.10in /  1019.2hPa South 6.0mph /  9.7km/h 9.0mph /  14.5km/h 75% 0.00in /  0mm 11 W/m2
16:29 42.6 °F /  5.9 °C 35.2 °F /  1.8 °C 30.10in /  1019.2hPa SSW 4.0mph /  6.4km/h 8.0mph /  12.9km/h 75% 0.00in /  0mm 9 W/m2
16:34 42.6 °F /  5.9 °C 35.6 °F /  2 °C 30.10in /  1019.2hPa SW 4.0mph /  6.4km/h 8.0mph /  12.9km/h 76% 0.00in /  0mm 7 W/m2
16:39 42.4 °F /  5.8 °C 35.4 °F /  1.9 °C 30.09in /  1018.8hPa SW 6.0mph /  9.7km/h 10.0mph /  16.1km/h 76% 0.00in /  0mm 5 W/m2
16:44 42.4 °F /  5.8 °C 35.4 °F /  1.9 °C 30.09in /  1018.8hPa SSW 8.0mph /  12.9km/h 12.0mph /  19.3km/h 76% 0.00in /  0mm 0 W/m2
16:49 42.3 °F /  5.7 °C 35.2 °F /  1.8 °C 30.09in /  1018.8hPa SW 6.0mph /  9.7km/h 11.0mph /  17.7km/h 76% 0.00in /  0mm 0 W/m2
16:54 42.3 °F /  5.7 °C 35.2 °F /  1.8 °C 30.08in /  1018.5hPa SW 8.0mph /  12.9km/h 13.0mph /  20.9km/h 76% 0.00in /  0mm 0 W/m2
16:59 42.3 °F /  5.7 °C 35.2 °F /  1.8 °C 30.08in /  1018.5hPa SW 9.0mph /  14.5km/h 14.0mph /  22.5km/h 76% 0.00in /  0mm 0 W/m2
17:04 42.1 °F /  5.6 °C 35.4 °F /  1.9 °C 30.08in /  1018.5hPa SW 9.0mph /  14.5km/h 13.0mph /  20.9km/h 77% 0.00in /  0mm 0 W/m2
17:09 42.1 °F /  5.6 °C 35.4 °F /  1.9 °C 30.08in /  1018.5hPa SW 8.0mph /  12.9km/h 13.0mph /  20.9km/h 77% 0.00in /  0mm 0 W/m2
17:14 42.1 °F /  5.6 °C 35.4 °F /  1.9 °C 30.07in /  1018.2hPa SW 7.0mph /  11.3km/h 11.0mph /  17.7km/h 77% 0.00in /  0mm 0 W/m2
17:19 42.1 °F /  5.6 °C 35.4 °F /  1.9 °C 30.06in /  1017.8hPa SW 8.0mph /  12.9km/h 12.0mph /  19.3km/h 77% 0.00in /  0mm 0 W/m2
17:24 42.1 °F /  5.6 °C 35.4 °F /  1.9 °C 30.06in /  1017.8hPa SW 9.0mph /  14.5km/h 12.0mph /  19.3km/h 77% 0.00in /  0mm 0 W/m2
17:29 41.9 °F /  5.5 °C 35.2 °F /  1.8 °C 30.06in /  1017.8hPa SW 11.0mph /  17.7km/h 18.0mph /  29km/h 77% 0.00in /  0mm 0 W/m2
17:34 42.1 °F /  5.6 °C 35.1 °F /  1.7 °C 30.06in /  1017.8hPa SW 8.0mph /  12.9km/h 13.0mph /  20.9km/h 76% 0.00in /  0mm 0 W/m2
17:39 41.9 °F /  5.5 °C 35.2 °F /  1.8 °C 30.05in /  1017.5hPa SW 8.0mph /  12.9km/h 12.0mph /  19.3km/h 77% 0.00in /  0mm 0 W/m2
17:44 41.9 °F /  5.5 °C 34.9 °F /  1.6 °C 30.05in /  1017.5hPa WSW 9.0mph /  14.5km/h 14.0mph /  22.5km/h 76% 0.00in /  0mm 0 W/m2
17:50 41.7 °F /  5.4 °C 35.0 °F /  1.7 °C 30.05in /  1017.5hPa SW 10.0mph /  16.1km/h 16.0mph /  25.7km/h 77% 0.00in /  0mm 0 W/m2
17:55 41.7 °F /  5.4 °C 34.7 °F /  1.5 °C 30.05in /  1017.5hPa SW 12.0mph /  19.3km/h 21.0mph /  33.8km/h 76% 0.00in /  0mm 0 W/m2
18:00 41.7 °F /  5.4 °C 35.0 °F /  1.7 °C 30.04in /  1017.2hPa SW 11.0mph /  17.7km/h 19.0mph /  30.6km/h 77% 0.00in /  0mm 0 W/m2
18:05 41.7 °F /  5.4 °C 35.0 °F /  1.7 °C 30.03in /  1016.8hPa WSW 11.0mph /  17.7km/h 19.0mph /  30.6km/h 77% 0.00in /  0mm 0 W/m2
18:10 41.7 °F /  5.4 °C 35.0 °F /  1.7 °C 30.04in /  1017.2hPa WSW 11.0mph /  17.7km/h 18.0mph /  29km/h 77% 0.00in /  0mm 0 W/m2
18:15 41.5 °F /  5.3 °C 34.9 °F /  1.6 °C 30.04in /  1017.2hPa WSW 11.0mph /  17.7km/h 16.0mph /  25.7km/h 77% 0.00in /  0mm 0 W/m2
18:20 41.5 °F /  5.3 °C 34.9 °F /  1.6 °C 30.04in /  1017.2hPa WSW 11.0mph /  17.7km/h 16.0mph /  25.7km/h 77% 0.00in /  0mm 0 W/m2
18:25 41.5 °F /  5.3 °C 34.9 °F /  1.6 °C 30.03in /  1016.8hPa WSW 11.0mph /  17.7km/h 16.0mph /  25.7km/h 77% 0.00in /  0mm 0 W/m2
18:30 41.5 °F /  5.3 °C 34.9 °F /  1.6 °C 30.03in /  1016.8hPa WSW 10.0mph /  16.1km/h 14.0mph /  22.5km/h 77% 0.00in /  0mm 0 W/m2
18:35 41.5 °F /  5.3 °C 34.9 °F /  1.6 °C 30.03in /  1016.8hPa WSW 10.0mph /  16.1km/h 13.0mph /  20.9km/h 77% 0.00in /  0mm 0 W/m2
18:40 41.5 °F /  5.3 °C 34.9 °F /  1.6 °C 30.03in /  1016.8hPa WSW 9.0mph /  14.5km/h 13.0mph /  20.9km/h 77% 0.00in /  0mm 0 W/m2
18:45 41.5 °F /  5.3 °C 34.9 °F /  1.6 °C 30.03in /  1016.8hPa SW 8.0mph /  12.9km/h 13.0mph /  20.9km/h 77% 0.00in /  0mm 0 W/m2
18:50 41.5 °F /  5.3 °C 34.9 °F /  1.6 °C 30.03in /  1016.8hPa SW 7.0mph /  11.3km/h 9.0mph /  14.5km/h 77% 0.00in /  0mm 0 W/m2
18:55 41.5 °F /  5.3 °C 34.5 °F /  1.4 °C 30.02in /  1016.5hPa WSW 6.0mph /  9.7km/h 8.0mph /  12.9km/h 76% 0.00in /  0mm 0 W/m2
19:00 41.5 °F /  5.3 °C 34.5 °F /  1.4 °C 30.02in /  1016.5hPa WSW 7.0mph /  11.3km/h 9.0mph /  14.5km/h 76% 0.00in /  0mm 0 W/m2
19:05 41.5 °F /  5.3 °C 34.5 °F /  1.4 °C 30.01in /  1016.1hPa WSW 5.0mph /  8km/h 9.0mph /  14.5km/h 76% 0.00in /  0mm 0 W/m2
19:10 41.7 °F /  5.4 °C 34.7 °F /  1.5 °C 30.01in /  1016.1hPa SW 4.0mph /  6.4km/h 8.0mph /  12.9km/h 76% 0.00in /  0mm 0 W/m2
19:15 41.7 °F /  5.4 °C 34.7 °F /  1.5 °C 30.01in /  1016.1hPa SSW 3.0mph /  4.8km/h 7.0mph /  11.3km/h 76% 0.00in /  0mm 0 W/m2
19:20 41.7 °F /  5.4 °C 34.7 °F /  1.5 °C 30.00in /  1015.8hPa SW 5.0mph /  8km/h 8.0mph /  12.9km/h 76% 0.00in /  0mm 0 W/m2
19:25 41.9 °F /  5.5 °C 34.9 °F /  1.6 °C 30.00in /  1015.8hPa South 5.0mph /  8km/h 10.0mph /  16.1km/h 76% 0.00in /  0mm 0 W/m2
19:30 41.7 °F /  5.4 °C 34.7 °F /  1.5 °C 29.99in /  1015.5hPa South 4.0mph /  6.4km/h 7.0mph /  11.3km/h 76% 0.00in /  0mm 0 W/m2
19:35 41.7 °F /  5.4 °C 34.7 °F /  1.5 °C 29.99in /  1015.5hPa SSE 3.0mph /  4.8km/h 6.0mph /  9.7km/h 76% 0.00in /  0mm 0 W/m2
19:37 41.7 °F /  5.4 °C 34.7 °F /  1.5 °C 29.99in /  1015.5hPa SE 3.0mph /  4.8km/h 6.0mph /  9.7km/h 76% 0.00in /  0mm 0 W/m2
19:42 41.7 °F /  5.4 °C 35.0 °F /  1.7 °C 29.99in /  1015.5hPa SSE 5.0mph /  8km/h 9.0mph /  14.5km/h 77% 0.00in /  0mm 0 W/m2
19:47 41.5 °F /  5.3 °C 34.9 °F /  1.6 °C 29.98in /  1015.1hPa SE 6.0mph /  9.7km/h 9.0mph /  14.5km/h 77% 0.00in /  0mm 0 W/m2
19:52 41.5 °F /  5.3 °C 35.2 °F /  1.8 °C 29.97in /  1014.8hPa SSE 6.0mph /  9.7km/h 12.0mph /  19.3km/h 78% 0.00in /  0mm 0 W/m2
19:57 41.5 °F /  5.3 °C 35.2 °F /  1.8 °C 29.97in /  1014.8hPa SE 7.0mph /  11.3km/h 11.0mph /  17.7km/h 78% 0.00in /  0mm 0 W/m2
20:02 41.4 °F /  5.2 °C 35.3 °F /  1.8 °C 29.97in /  1014.8hPa SSE 6.0mph /  9.7km/h 10.0mph /  16.1km/h 79% 0.00in /  0mm 0 W/m2
20:07 41.4 °F /  5.2 °C 35.3 °F /  1.8 °C 29.97in /  1014.8hPa SSE 5.0mph /  8km/h 8.0mph /  12.9km/h 79% 0.00in /  0mm 0 W/m2
20:12 41.4 °F /  5.2 °C 35.3 °F /  1.8 °C 29.96in /  1014.4hPa SE 7.0mph /  11.3km/h 10.0mph /  16.1km/h 79% 0.00in /  0mm 0 W/m2
20:17 41.2 °F /  5.1 °C 35.5 °F /  1.9 °C 29.96in /  1014.4hPa SE 4.0mph /  6.4km/h 9.0mph /  14.5km/h 80% 0.00in /  0mm 0 W/m2
20:22 41.2 °F /  5.1 °C 35.5 °F /  1.9 °C 29.96in /  1014.4hPa SSE 5.0mph /  8km/h 8.0mph /  12.9km/h 80% 0.00in /  0mm 0 W/m2
20:27 41.2 °F /  5.1 °C 35.8 °F /  2.1 °C 29.95in /  1014.1hPa SW 1.0mph /  1.6km/h 5.0mph /  8km/h 81% 0.00in /  0mm 0 W/m2
20:32 41.2 °F /  5.1 °C 35.8 °F /  2.1 °C 29.94in /  1013.8hPa SW 2.0mph /  3.2km/h 9.0mph /  14.5km/h 81% 0.00in /  0mm 0 W/m2
20:37 41.0 °F /  5 °C 35.6 °F /  2 °C 29.94in /  1013.8hPa SW 6.0mph /  9.7km/h 9.0mph /  14.5km/h 81% 0.00in /  0mm 0 W/m2
20:42 41.0 °F /  5 °C 35.6 °F /  2 °C 29.93in /  1013.4hPa SSW 9.0mph /  14.5km/h 14.0mph /  22.5km/h 81% 0.00in /  0mm 0 W/m2
20:47 40.8 °F /  4.9 °C 35.7 °F /  2.1 °C 29.93in /  1013.4hPa SW 10.0mph /  16.1km/h 15.0mph /  24.1km/h 82% 0.00in /  0mm 0 W/m2
20:52 40.8 °F /  4.9 °C 35.7 °F /  2.1 °C 29.93in /  1013.4hPa SW 11.0mph /  17.7km/h 16.0mph /  25.7km/h 82% 0.00in /  0mm 0 W/m2
20:57 40.8 °F /  4.9 °C 35.7 °F /  2.1 °C 29.92in /  1013.1hPa SSW 10.0mph /  16.1km/h 16.0mph /  25.7km/h 82% 0.00in /  0mm 0 W/m2
21:02 40.8 °F /  4.9 °C 35.7 °F /  2.1 °C 29.92in /  1013.1hPa SW 11.0mph /  17.7km/h 16.0mph /  25.7km/h 82% 0.00in /  0mm 0 W/m2
21:07 40.8 °F /  4.9 °C 35.7 °F /  2.1 °C 29.91in /  1012.8hPa SSW 11.0mph /  17.7km/h 14.0mph /  22.5km/h 82% 0.00in /  0mm 0 W/m2
21:12 40.6 °F /  4.8 °C 35.6 °F /  2 °C 29.91in /  1012.8hPa SSW 8.0mph /  12.9km/h 12.0mph /  19.3km/h 82% 0.00in /  0mm 0 W/m2
21:17 40.6 °F /  4.8 °C 35.9 °F /  2.2 °C 29.90in /  1012.4hPa SSW 7.0mph /  11.3km/h 11.0mph /  17.7km/h 83% 0.00in /  0mm 0 W/m2
21:22 40.5 °F /  4.7 °C 35.7 °F /  2.1 °C 29.90in /  1012.4hPa SSW 6.0mph /  9.7km/h 11.0mph /  17.7km/h 83% 0.00in /  0mm 0 W/m2
21:28 40.5 °F /  4.7 °C 35.7 °F /  2.1 °C 29.89in /  1012.1hPa SSW 8.0mph /  12.9km/h 15.0mph /  24.1km/h 83% 0.00in /  0mm 0 W/m2
21:33 40.3 °F /  4.6 °C 35.8 °F /  2.1 °C 29.90in /  1012.4hPa SSW 7.0mph /  11.3km/h 13.0mph /  20.9km/h 84% 0.00in /  0mm 0 W/m2
21:38 40.3 °F /  4.6 °C 35.8 °F /  2.1 °C 29.89in /  1012.1hPa SSW 5.0mph /  8km/h 10.0mph /  16.1km/h 84% 0.00in /  0mm 0 W/m2
21:43 40.3 °F /  4.6 °C 35.8 °F /  2.1 °C 29.88in /  1011.7hPa SSW 4.0mph /  6.4km/h 8.0mph /  12.9km/h 84% 0.00in /  0mm 0 W/m2
21:48 40.3 °F /  4.6 °C 36.1 °F /  2.3 °C 29.88in /  1011.7hPa SSE 2.0mph /  3.2km/h 7.0mph /  11.3km/h 85% 0.00in /  0mm 0 W/m2
21:53 40.3 °F /  4.6 °C 36.4 °F /  2.4 °C 29.87in /  1011.4hPa SSW 4.0mph /  6.4km/h 7.0mph /  11.3km/h 86% 0.00in /  0mm 0 W/m2
21:58 40.3 °F /  4.6 °C 36.4 °F /  2.4 °C 29.87in /  1011.4hPa South 3.0mph /  4.8km/h 8.0mph /  12.9km/h 86% 0.00in /  0mm 0 W/m2
22:06 40.3 °F /  4.6 °C 36.7 °F /  2.6 °C 29.87in /  1011.4hPa SSW 3.0mph /  4.8km/h 5.0mph /  8km/h 87% 0.00in /  0mm 0 W/m2
22:11 40.3 °F /  4.6 °C 36.7 °F /  2.6 °C 29.86in /  1011.1hPa South 5.0mph /  8km/h 11.0mph /  17.7km/h 87% 0.00in /  0mm 0 W/m2
22:16 40.3 °F /  4.6 °C 36.7 °F /  2.6 °C 29.86in /  1011.1hPa SSW 4.0mph /  6.4km/h 8.0mph /  12.9km/h 87% 0.00in /  0mm 0 W/m2
22:21 40.3 °F /  4.6 °C 37.0 °F /  2.8 °C 29.85in /  1010.7hPa South 7.0mph /  11.3km/h 10.0mph /  16.1km/h 88% 0.00in /  0mm 0 W/m2
22:26 40.3 °F /  4.6 °C 37.0 °F /  2.8 °C 29.85in /  1010.7hPa SSW 6.0mph /  9.7km/h 10.0mph /  16.1km/h 88% 0.00in /  0mm 0 W/m2
22:31 40.3 °F /  4.6 °C 37.0 °F /  2.8 °C 29.84in /  1010.4hPa SSW 6.0mph /  9.7km/h 10.0mph /  16.1km/h 88% 0.00in /  0mm 0 W/m2
22:36 40.3 °F /  4.6 °C 37.3 °F /  2.9 °C 29.84in /  1010.4hPa South 5.0mph /  8km/h 7.0mph /  11.3km/h 89% 0.00in /  0mm 0 W/m2
22:41 40.3 °F /  4.6 °C 37.3 °F /  2.9 °C 29.84in /  1010.4hPa SSW 7.0mph /  11.3km/h 10.0mph /  16.1km/h 89% 0.00in /  0mm 0 W/m2
22:46 40.1 °F /  4.5 °C 37.4 °F /  3 °C 29.83in /  1010hPa SSW 6.0mph /  9.7km/h 9.0mph /  14.5km/h 90% 0.00in /  0mm 0 W/m2
22:51 39.9 °F /  4.4 °C 37.2 °F /  2.9 °C 29.83in /  1010hPa SSW 5.0mph /  8km/h 8.0mph /  12.9km/h 90% 0.00in /  0mm 0 W/m2
22:56 39.9 °F /  4.4 °C 37.5 °F /  3.1 °C 29.82in /  1009.7hPa South 6.0mph /  9.7km/h 10.0mph /  16.1km/h 91% 0.00in /  0mm 0 W/m2
23:01 39.7 °F /  4.3 °C 37.3 °F /  2.9 °C 29.81in /  1009.4hPa SSW 6.0mph /  9.7km/h 10.0mph /  16.1km/h 91% 0.00in /  0mm 0 W/m2
23:06 39.7 °F /  4.3 °C 37.6 °F /  3.1 °C 29.81in /  1009.4hPa SSW 8.0mph /  12.9km/h 13.0mph /  20.9km/h 92% 0.00in /  0mm 0 W/m2
23:11 39.7 °F /  4.3 °C 37.6 °F /  3.1 °C 29.79in /  1008.7hPa SSW 5.0mph /  8km/h 8.0mph /  12.9km/h 92% 0.00in /  0mm 0 W/m2
23:16 39.7 °F /  4.3 °C 37.6 °F /  3.1 °C 29.79in /  1008.7hPa SSW 3.0mph /  4.8km/h 8.0mph /  12.9km/h 92% 0.00in /  0mm 0 W/m2
23:21 39.6 °F /  4.2 °C 37.4 °F /  3 °C 29.78in /  1008.4hPa SSW 7.0mph /  11.3km/h 11.0mph /  17.7km/h 92% 0.00in /  0mm 0 W/m2
23:26 39.6 °F /  4.2 °C 37.7 °F /  3.2 °C 29.78in /  1008.4hPa SSW 3.0mph /  4.8km/h 7.0mph /  11.3km/h 93% 0.00in /  0mm 0 W/m2
23:31 39.6 °F /  4.2 °C 37.7 °F /  3.2 °C 29.78in /  1008.4hPa WSW 3.0mph /  4.8km/h 5.0mph /  8km/h 93% 0.00in /  0mm 0 W/m2
23:36 39.6 °F /  4.2 °C 37.7 °F /  3.2 °C 29.77in /  1008hPa SSW 4.0mph /  6.4km/h 7.0mph /  11.3km/h 93% 0.00in /  0mm 0 W/m2
23:41 39.6 °F /  4.2 °C 37.7 °F /  3.2 °C 29.76in /  1007.7hPa SSW 5.0mph /  8km/h 10.0mph /  16.1km/h 93% 0.00in /  0mm 0 W/m2
23:46 39.6 °F /  4.2 °C 37.7 °F /  3.2 °C 29.77in /  1008hPa SSW 7.0mph /  11.3km/h 10.0mph /  16.1km/h 93% 0.00in /  0mm 0 W/m2
23:51 39.6 °F /  4.2 °C 37.7 °F /  3.2 °C 29.76in /  1007.7hPa SW 6.0mph /  9.7km/h 10.0mph /  16.1km/h 93% 0.00in /  0mm 0 W/m2
23:56 39.6 °F /  4.2 °C 37.7 °F /  3.2 °C 29.76in /  1007.7hPa SSW 6.0mph /  9.7km/h 12.0mph /  19.3km/h 93% 0.00in /  0mm 0 W/m2
Delerius Weather

Data updates at regular intervals.